Time;durP1;ratioP1;P1;durP2;ratioP2;P2;SDS_P1;SDS_P2;PMS_P1;PMS_P2;Temp;Humidity;BMP_temperature;BMP_pressure;BME280_temperature;BME280_humidity;BME280_pressure;Samples;Min_cycle;Max_cycle;Signal;HPM_P1;HPM_P2
2021/11/17 02:26:09;;;;;;;107.80;33.33;;;;;;;;;;5105005;28;20073;-67
2021/11/17 02:28:44;;;;;;;106.40;32.03;;;;;;;;;;5123779;28;20054;-67
2021/11/17 02:31:23;;;;;;;97.82;32.75;;;;;;;;;;5105831;28;20055;-67
2021/11/17 02:34:06;;;;;;;92.72;30.52;;;;;;;;;;5124836;28;20058;-67
2021/11/17 02:36:52;;;;;;;107.15;34.67;;;;;;;;;;5124030;28;20114;-67
2021/11/17 02:39:18;;;;;;;90.35;31.88;;;;;;;;;;5096198;28;20059;-67
2021/11/17 02:42:03;;;;;;;97.55;31.45;;;;;;;;;;5123874;28;20511;-67
2021/11/17 02:44:41;;;;;;;95.03;32.15;;;;;;;;;;5124252;28;20122;-67
2021/11/17 02:47:26;;;;;;;84.38;29.63;;;;;;;;;;5118940;28;20048;-66
2021/11/17 02:49:59;;;;;;;86.30;31.13;;;;;;;;;;5122848;28;20056;-66
2021/11/17 02:52:31;;;;;;;83.78;30.30;;;;;;;;;;5124432;28;20047;-66
2021/11/17 02:55:09;;;;;;;102.85;34.53;;;;;;;;;;5123630;28;20047;-66
2021/11/17 02:57:38;;;;;;;98.68;31.05;;;;;;;;;;5095892;28;20044;-66
2021/11/17 03:00:10;;;;;;;83.80;29.30;;;;;;;;;;5112406;28;20096;-66
2021/11/17 03:02:39;;;;;;;83.47;28.38;;;;;;;;;;5124208;28;20103;-66
2021/11/17 03:05:20;;;;;;;88.68;29.83;;;;;;;;;;5123847;28;20071;-67
2021/11/17 03:08:18;;;;;;;98.07;31.20;;;;;;;;;;5095603;28;20444;-67
2021/11/17 03:10:44;;;;;;;84.65;28.95;;;;;;;;;;5008971;28;20069;-67
2021/11/17 03:13:10;;;;;;;92.90;31.83;;;;;;;;;;5020919;28;20046;-67
2021/11/17 03:15:42;;;;;;;85.20;29.50;;;;;;;;;;5021402;28;20088;-67
2021/11/17 03:18:17;;;;;;;83.68;29.75;;;;;;;;;;5015040;28;20057;-67
2021/11/17 03:20:52;;;;;;;82.30;30.33;;;;;;;;;;5008179;28;20042;-66
2021/11/17 03:23:21;;;;;;;86.80;30.65;;;;;;;;;;5020988;28;20062;-66
2021/11/17 03:25:59;;;;;;;79.85;27.60;;;;;;;;;;5020641;28;20133;-66
2021/11/17 03:28:25;;;;;;;81.07;26.88;;;;;;;;;;4986064;28;20046;-66
2021/11/17 03:31:06;;;;;;;76.82;28.20;;;;;;;;;;5001254;28;20069;-66
2021/11/17 03:33:54;;;;;;;89.30;31.60;;;;;;;;;;5014066;28;20042;-66
2021/11/17 03:36:38;;;;;;;81.88;29.10;;;;;;;;;;5021058;28;20050;-66
2021/11/17 03:39:04;;;;;;;86.68;29.08;;;;;;;;;;5022190;28;20049;-67
2021/11/17 03:41:49;;;;;;;83.43;29.17;;;;;;;;;;5012906;28;20667;-66
2021/11/17 03:44:34;;;;;;;73.93;26.23;;;;;;;;;;5010846;28;20048;-66
2021/11/17 03:47:04;;;;;;;82.90;30.10;;;;;;;;;;5104088;28;20063;-66
2021/11/17 03:49:32;;;;;;;77.10;27.55;;;;;;;;;;5112869;28;20108;-67
2021/11/17 03:52:17;;;;;;;90.32;31.80;;;;;;;;;;5127344;28;20055;-67
2021/11/17 03:55:00;;;;;;;89.15;28.52;;;;;;;;;;5120999;28;20069;-67
2021/11/17 03:57:35;;;;;;;91.35;29.98;;;;;;;;;;5127124;28;20078;-66
2021/11/17 04:00:04;;;;;;;97.28;32.35;;;;;;;;;;5127195;28;20043;-67
2021/11/17 04:02:49;;;;;;;89.78;32.05;;;;;;;;;;5127641;28;20040;-67
2021/11/17 04:05:25;;;;;;;93.50;32.38;;;;;;;;;;5116848;28;20044;-67
2021/11/17 04:08:09;;;;;;;89.25;31.23;;;;;;;;;;5127071;28;20088;-67
2021/11/17 04:10:38;;;;;;;95.40;32.08;;;;;;;;;;5126578;28;20057;-67
2021/11/17 04:13:04;;;;;;;104.00;33.47;;;;;;;;;;5108358;28;20142;-67
2021/11/17 04:15:46;;;;;;;96.60;32.10;;;;;;;;;;5100018;28;20048;-67
2021/11/17 04:18:24;;;;;;;113.15;34.17;;;;;;;;;;5123762;28;20047;-67
2021/11/17 04:20:54;;;;;;;92.55;32.22;;;;;;;;;;5108644;28;20047;-67
2021/11/17 04:23:33;;;;;;;105.72;34.05;;;;;;;;;;5126487;28;20059;-67
2021/11/17 04:26:11;;;;;;;110.55;35.00;;;;;;;;;;5112956;28;20127;-67
2021/11/17 04:28:50;;;;;;;99.90;34.13;;;;;;;;;;5126892;28;20057;-67
2021/11/17 04:31:22;;;;;;;127.35;36.13;;;;;;;;;;5108303;28;20044;-67
2021/11/17 04:33:48;;;;;;;99.70;32.67;;;;;;;;;;5102647;28;20064;-68
2021/11/17 04:36:27;;;;;;;98.10;31.40;;;;;;;;;;5095041;28;20075;-67
2021/11/17 04:39:20;;;;;;;108.43;33.95;;;;;;;;;;5094128;28;20220;-67
2021/11/17 04:41:53;;;;;;;106.45;34.88;;;;;;;;;;5106933;28;20045;-66
2021/11/17 04:44:19;;;;;;;109.47;33.03;;;;;;;;;;5125706;28;20091;-66
2021/11/17 04:47:05;;;;;;;103.35;33.28;;;;;;;;;;5126715;28;20062;-66
2021/11/17 04:49:50;;;;;;;109.63;33.95;;;;;;;;;;5106950;28;20050;-66
2021/11/17 04:52:25;;;;;;;98.30;30.17;;;;;;;;;;5119516;28;20079;-66
2021/11/17 04:54:51;;;;;;;89.47;28.05;;;;;;;;;;5101531;28;20043;-66
2021/11/17 04:57:23;;;;;;;95.18;31.10;;;;;;;;;;5125992;28;20039;-66
2021/11/17 04:59:55;;;;;;;96.95;30.27;;;;;;;;;;5107817;28;20043;-67
2021/11/17 05:02:34;;;;;;;91.15;30.00;;;;;;;;;;5120865;28;20040;-66
2021/11/17 05:05:00;;;;;;;;;;;;;;;;;;5090267;28;20327;-66
2021/11/17 05:07:39;;;;;;;77.22;28.48;;;;;;;;;;5126589;28;19986;-66
2021/11/17 05:10:23;;;;;;;95.47;32.58;;;;;;;;;;5125397;28;20035;-66
2021/11/17 05:12:52;;;;;;;94.53;31.00;;;;;;;;;;5098432;28;20056;-66
2021/11/17 05:15:38;;;;;;;81.85;29.13;;;;;;;;;;5118976;28;20072;-66
2021/11/17 05:18:04;;;;;;;88.00;29.42;;;;;;;;;;5121163;28;20052;-66
2021/11/17 05:20:34;;;;;;;101.68;30.77;;;;;;;;;;5125731;28;20127;-66
2021/11/17 05:23:06;;;;;;;102.93;32.78;;;;;;;;;;5121648;28;20043;-66
2021/11/17 05:25:38;;;;;;;105.97;33.70;;;;;;;;;;5125696;28;20046;-67
2021/11/17 05:28:04;;;;;;;120.95;35.42;;;;;;;;;;5125660;28;20044;-67
2021/11/17 05:30:37;;;;;;;118.82;37.28;;;;;;;;;;5120252;28;20062;-67
2021/11/17 05:33:27;;;;;;;111.55;34.00;;;;;;;;;;5109695;28;20056;-66
2021/11/17 05:35:56;;;;;;;124.00;37.17;;;;;;;;;;5100997;28;20054;-67
2021/11/17 05:38:45;;;;;;;106.45;35.70;;;;;;;;;;5096503;28;20104;-67
2021/11/17 05:41:31;;;;;;;118.28;36.33;;;;;;;;;;5081584;28;20052;-67
2021/11/17 05:44:03;;;;;;;127.20;38.28;;;;;;;;;;5125426;28;20039;-67
2021/11/17 05:46:44;;;;;;;125.18;37.50;;;;;;;;;;5125386;28;20130;-66
2021/11/17 05:49:31;;;;;;;101.60;36.20;;;;;;;;;;5101053;28;20040;-66
2021/11/17 05:51:57;;;;;;;113.32;38.58;;;;;;;;;;5107112;28;20055;-66
2021/11/17 05:54:30;;;;;;;127.93;39.95;;;;;;;;;;5106758;28;20058;-67
2021/11/17 05:56:58;;;;;;;126.00;40.13;;;;;;;;;;5125154;28;20126;-67
2021/11/17 05:59:24;;;;;;;129.32;43.22;;;;;;;;;;5102498;28;20063;-67
2021/11/17 06:02:17;;;;;;;142.05;43.65;;;;;;;;;;5115230;28;20063;-67
2021/11/17 06:04:43;;;;;;;129.43;39.30;;;;;;;;;;5120333;28;20043;-67
2021/11/17 06:07:09;;;;;;;143.50;43.13;;;;;;;;;;5125060;28;20051;-67
2021/11/17 06:09:35;;;;;;;147.75;44.35;;;;;;;;;;5113319;28;20514;-67
2021/11/17 06:12:03;;;;;;;135.60;42.40;;;;;;;;;;5124232;28;20043;-67
2021/11/17 06:14:38;;;;;;;159.32;48.40;;;;;;;;;;5124636;28;20044;-67
2021/11/17 06:17:07;;;;;;;142.63;44.95;;;;;;;;;;5124730;28;20070;-67
2021/11/17 06:19:39;;;;;;;131.55;42.05;;;;;;;;;;5087077;28;20078;-67
2021/11/17 06:22:06;;;;;;;155.02;44.97;;;;;;;;;;5110322;28;20031;-67
2021/11/17 06:24:33;;;;;;;138.73;45.40;;;;;;;;;;5115514;28;20046;-67
2021/11/17 06:27:00;;;;;;;148.18;45.80;;;;;;;;;;5119308;28;20277;-67
2021/11/17 06:29:29;;;;;;;161.50;46.40;;;;;;;;;;5123692;28;20044;-67
2021/11/17 06:31:56;;;;;;;159.65;46.50;;;;;;;;;;5106274;28;20077;-67
2021/11/17 06:34:24;;;;;;;153.13;48.55;;;;;;;;;;5124479;28;20047;-67
2021/11/17 06:36:50;;;;;;;168.32;47.75;;;;;;;;;;5124459;28;20082;-67
2021/11/17 06:39:16;;;;;;;161.68;48.88;;;;;;;;;;5123107;28;20043;-67
2021/11/17 06:41:42;;;;;;;143.32;45.20;;;;;;;;;;5111141;28;20118;-67
2021/11/17 06:44:08;;;;;;;149.45;44.40;;;;;;;;;;5113348;28;20516;-67
2021/11/17 06:46:34;;;;;;;140.40;45.58;;;;;;;;;;5115579;28;20099;-67
2021/11/17 06:49:00;;;;;;;161.32;47.95;;;;;;;;;;5116228;28;20036;-67
2021/11/17 06:51:26;;;;;;;159.50;48.72;;;;;;;;;;5119576;28;20059;-67
2021/11/17 06:53:52;;;;;;;157.45;45.28;;;;;;;;;;5099263;28;20035;-67
2021/11/17 06:56:20;;;;;;;159.65;45.25;;;;;;;;;;5122371;28;20043;-67
2021/11/17 06:58:46;;;;;;;165.07;48.67;;;;;;;;;;5119481;28;20111;-67
2021/11/17 07:01:12;;;;;;;126.85;43.97;;;;;;;;;;5106955;28;20095;-67
2021/11/17 07:03:39;;;;;;;138.63;46.05;;;;;;;;;;5114218;28;20051;-67
2021/11/17 07:06:05;;;;;;;151.50;49.00;;;;;;;;;;5091245;28;20130;-67
2021/11/17 07:08:31;;;;;;;152.95;49.75;;;;;;;;;;5109491;28;20127;-67
2021/11/17 07:10:57;;;;;;;137.23;44.65;;;;;;;;;;5099634;28;20495;-67
2021/11/17 07:13:23;;;;;;;145.00;49.85;;;;;;;;;;5123024;28;20382;-67
2021/11/17 07:15:49;;;;;;;138.10;46.72;;;;;;;;;;5117599;28;20118;-67
2021/11/17 07:18:16;;;;;;;129.55;44.83;;;;;;;;;;5120379;28;20035;-67
2021/11/17 07:20:43;;;;;;;143.10;44.97;;;;;;;;;;5096036;28;20480;-67
2021/11/17 07:23:09;;;;;;;138.48;45.22;;;;;;;;;;5119456;28;20526;-67
2021/11/17 07:25:36;;;;;;;121.45;43.42;;;;;;;;;;5112162;28;20100;-67
2021/11/17 07:28:02;;;;;;;135.43;45.70;;;;;;;;;;5127517;28;20102;-67
2021/11/17 07:30:30;;;;;;;121.10;43.95;;;;;;;;;;5125416;28;20048;-67
2021/11/17 07:32:56;;;;;;;114.45;41.78;;;;;;;;;;5127900;28;20048;-67
2021/11/17 07:35:24;;;;;;;122.93;44.20;;;;;;;;;;5128058;28;20048;-67
2021/11/17 07:37:50;;;;;;;128.43;43.00;;;;;;;;;;5127197;28;20062;-67
2021/11/17 07:40:17;;;;;;;136.10;45.67;;;;;;;;;;5114594;28;20044;-67
2021/11/17 07:42:43;;;;;;;130.18;46.42;;;;;;;;;;5125963;28;20054;-67
2021/11/17 07:45:10;;;;;;;127.82;46.53;;;;;;;;;;5126774;28;20040;-66
2021/11/17 07:47:36;;;;;;;122.07;43.77;;;;;;;;;;5127939;28;20050;-67
2021/11/17 07:50:05;;;;;;;122.82;43.50;;;;;;;;;;5127430;28;20059;-67
2021/11/17 07:52:32;;;;;;;100.57;39.70;;;;;;;;;;5126204;28;20108;-67
2021/11/17 07:54:58;;;;;;;111.78;40.22;;;;;;;;;;5096108;28;20082;-68
2021/11/17 07:57:24;;;;;;;101.25;40.28;;;;;;;;;;5126825;28;20035;-68
2021/11/17 07:59:50;;;;;;;128.85;45.60;;;;;;;;;;5127160;28;20063;-67
2021/11/17 08:02:17;;;;;;;108.22;40.25;;;;;;;;;;5120560;28;20036;-68
2021/11/17 08:04:44;;;;;;;107.10;42.40;;;;;;;;;;5107552;28;20035;-67
2021/11/17 08:07:14;;;;;;;120.53;41.63;;;;;;;;;;5113359;28;20449;-67
2021/11/17 08:09:44;;;;;;;105.30;38.83;;;;;;;;;;5112191;28;20048;-68
2021/11/17 08:12:10;;;;;;;103.72;38.72;;;;;;;;;;5098006;28;20083;-67
2021/11/17 08:14:37;;;;;;;104.25;40.15;;;;;;;;;;5126069;28;20213;-68
2021/11/17 08:17:04;;;;;;;110.32;38.00;;;;;;;;;;5125296;28;20040;-68
2021/11/17 08:19:30;;;;;;;119.97;43.13;;;;;;;;;;5113813;28;20056;-69
2021/11/17 08:21:57;;;;;;;102.78;38.05;;;;;;;;;;5109108;28;20290;-68
2021/11/17 08:24:23;;;;;;;106.32;39.13;;;;;;;;;;5114652;28;20044;-68
2021/11/17 08:26:49;;;;;;;121.55;40.80;;;;;;;;;;5098309;28;20046;-78
2021/11/17 08:29:16;;;;;;;124.78;45.05;;;;;;;;;;5088681;28;20134;-64
2021/11/17 08:31:42;;;;;;;118.82;44.05;;;;;;;;;;5119234;28;20054;-64
2021/11/17 08:34:08;;;;;;;135.18;44.03;;;;;;;;;;5117898;28;20060;-63
2021/11/17 08:36:34;;;;;;;126.85;41.75;;;;;;;;;;5090256;28;20130;-71
2021/11/17 08:39:01;;;;;;;126.85;43.90;;;;;;;;;;5110331;28;20502;-67
2021/11/17 08:41:30;;;;;;;91.38;36.47;;;;;;;;;;5100473;28;20043;-66
2021/11/17 08:43:56;;;;;;;131.57;45.08;;;;;;;;;;5097469;28;20062;-72
2021/11/17 08:46:23;;;;;;;122.38;40.85;;;;;;;;;;5095546;28;20043;-65
2021/11/17 08:48:50;;;;;;;117.55;45.83;;;;;;;;;;5113088;28;20047;-64
2021/11/17 08:51:18;;;;;;;110.30;39.95;;;;;;;;;;5112793;28;20067;-64
2021/11/17 08:53:45;;;;;;;131.05;43.20;;;;;;;;;;5116123;28;20130;-65
2021/11/17 08:56:12;;;;;;;105.25;39.08;;;;;;;;;;5117248;28;20036;-64
2021/11/17 08:58:41;;;;;;;118.55;43.65;;;;;;;;;;5114736;28;20044;-65
2021/11/17 09:01:08;;;;;;;128.95;43.58;;;;;;;;;;5093511;28;20036;-64
2021/11/17 09:03:35;;;;;;;110.20;40.53;;;;;;;;;;5113152;28;20042;-64
2021/11/17 09:06:02;;;;;;;99.90;39.78;;;;;;;;;;5112464;28;20038;-64
2021/11/17 09:08:30;;;;;;;108.60;39.72;;;;;;;;;;5115670;28;20040;-64
2021/11/17 09:10:57;;;;;;;112.05;38.20;;;;;;;;;;5114510;28;20055;-64
2021/11/17 09:13:24;;;;;;;107.53;37.30;;;;;;;;;;5109413;28;20039;-64
2021/11/17 09:15:52;;;;;;;114.68;39.35;;;;;;;;;;5093549;28;20090;-64
2021/11/17 09:18:20;;;;;;;96.97;38.15;;;;;;;;;;5118378;28;20245;-64
2021/11/17 09:20:46;;;;;;;118.97;43.72;;;;;;;;;;5118966;28;20070;-64
2021/11/17 09:23:13;;;;;;;100.82;41.17;;;;;;;;;;5122898;28;20043;-64
2021/11/17 09:25:39;;;;;;;108.20;39.92;;;;;;;;;;5094697;28;20047;-64
2021/11/17 09:28:06;;;;;;;98.32;38.55;;;;;;;;;;5109803;28;20051;-65
2021/11/17 09:30:35;;;;;;;105.95;37.65;;;;;;;;;;5118357;28;20040;-64
2021/11/17 09:33:02;;;;;;;107.50;37.67;;;;;;;;;;5095986;28;20040;-64
2021/11/17 09:35:31;;;;;;;104.30;35.53;;;;;;;;;;5121047;28;20050;-64
2021/11/17 09:37:57;;;;;;;74.70;30.58;;;;;;;;;;5112240;28;20039;-67
2021/11/17 09:40:26;;;;;;;91.85;34.80;;;;;;;;;;5092555;28;20131;-65
2021/11/17 09:42:52;;;;;;;85.70;32.55;;;;;;;;;;5096689;28;20056;-65
2021/11/17 09:45:19;;;;;;;84.25;33.17;;;;;;;;;;5111699;28;20058;-66
2021/11/17 09:47:46;;;;;;;91.32;35.55;;;;;;;;;;5113783;28;20047;-72
2021/11/17 09:50:20;;;;;;;96.25;36.20;;;;;;;;;;5099667;28;20067;-75
2021/11/17 09:52:49;;;;;;;75.68;30.23;;;;;;;;;;5101195;28;20236;-76
2021/11/17 09:55:29;;;;;;;78.13;29.58;;;;;;;;;;5117488;28;20085;-75
2021/11/17 09:58:01;;;;;;;71.75;30.08;;;;;;;;;;5113319;28;20039;-73
2021/11/17 10:00:30;;;;;;;82.35;33.17;;;;;;;;;;5100285;28;20100;-66
2021/11/17 10:03:04;;;;;;;83.80;32.20;;;;;;;;;;5117540;28;20559;-65
2021/11/17 10:11:33;;;;;;;67.10;26.40;;;;;;;;;;5113263;28;20806;-63
2021/11/17 10:14:03;;;;;;;61.67;27.33;;;;;;;;;;5101080;28;20123;-64
2021/11/17 10:16:29;;;;;;;64.90;25.45;;;;;;;;;;5115027;28;20047;-67
2021/11/17 10:19:15;;;;;;;60.75;23.92;;;;;;;;;;5113959;28;20047;-61
2021/11/17 10:21:42;;;;;;;57.00;22.50;;;;;;;;;;5114707;28;20058;-66
2021/11/17 10:24:10;;;;;;;44.47;19.58;;;;;;;;;;5115230;28;20043;-67
2021/11/17 10:26:48;;;;;;;47.20;19.35;;;;;;;;;;5098965;28;20044;-64
2021/11/17 10:29:34;;;;;;;37.78;16.83;;;;;;;;;;5114688;28;20426;-73
2021/11/17 10:32:13;;;;;;;54.10;21.02;;;;;;;;;;5084792;28;20071;-73
2021/11/17 10:35:06;;;;;;;52.70;20.75;;;;;;;;;;5094677;28;20048;-71
2021/11/17 10:37:34;;;;;;;43.40;19.17;;;;;;;;;;5069804;28;20122;-76
2021/11/17 10:40:10;;;;;;;41.15;18.00;;;;;;;;;;5099315;28;20088;-71
2021/11/17 10:42:38;;;;;;;48.95;17.40;;;;;;;;;;5111885;28;20067;-75
2021/11/17 10:45:10;;;;;;;45.55;18.20;;;;;;;;;;5115165;28;20110;-68
2021/11/17 10:47:45;;;;;;;48.25;20.20;;;;;;;;;;5120342;28;20461;-70
2021/11/17 10:50:24;;;;;;;52.47;20.20;;;;;;;;;;5118421;28;20060;-71
2021/11/17 10:52:50;;;;;;;39.08;15.43;;;;;;;;;;5099947;28;20051;-66
2021/11/17 10:55:27;;;;;;;38.22;14.52;;;;;;;;;;5118107;28;20078;-65
2021/11/17 10:57:54;;;;;;;46.58;14.02;;;;;;;;;;5122519;28;20116;-68
2021/11/17 11:00:22;;;;;;;31.65;10.88;;;;;;;;;;5102321;28;20050;-66
2021/11/17 11:02:50;;;;;;;28.10;7.55;;;;;;;;;;5115082;28;20042;-62
2021/11/17 11:05:18;;;;;;;22.90;9.23;;;;;;;;;;5102701;28;20122;-68
2021/11/17 11:07:47;;;;;;;30.63;7.00;;;;;;;;;;5099577;28;20040;-65
2021/11/17 11:10:17;;;;;;;26.83;7.10;;;;;;;;;;5102180;28;20447;-66
2021/11/17 11:12:45;;;;;;;22.75;5.53;;;;;;;;;;5117198;28;20093;-65
2021/11/17 11:15:18;;;;;;;22.63;4.35;;;;;;;;;;5119884;28;20031;-67
2021/11/17 11:17:47;;;;;;;26.45;5.03;;;;;;;;;;5117361;28;20092;-70
2021/11/17 11:20:16;;;;;;;27.38;4.82;;;;;;;;;;5120531;28;20051;-65
2021/11/17 11:23:00;;;;;;;24.27;4.45;;;;;;;;;;5084880;28;20046;-65
2021/11/17 11:25:45;;;;;;;31.52;4.85;;;;;;;;;;5098121;28;20046;-65
2021/11/17 11:28:21;;;;;;;20.02;4.03;;;;;;;;;;5099407;28;20080;-65
2021/11/17 11:30:48;;;;;;;16.17;3.25;;;;;;;;;;5116661;28;20056;-65
2021/11/17 11:33:18;;;;;;;17.95;3.33;;;;;;;;;;5102281;28;20051;-66
2021/11/17 11:36:04;;;;;;;19.20;3.72;;;;;;;;;;5118043;28;20040;-64
2021/11/17 11:38:32;;;;;;;27.23;5.13;;;;;;;;;;5118489;28;20043;-74
2021/11/17 11:41:04;;;;;;;15.07;2.97;;;;;;;;;;5101622;28;20058;-65
2021/11/17 11:43:31;;;;;;;17.30;4.05;;;;;;;;;;5118495;28;20499;-68
2021/11/17 11:46:17;;;;;;;16.53;3.57;;;;;;;;;;5114466;28;20123;-67
2021/11/17 11:48:43;;;;;;;20.48;3.88;;;;;;;;;;5111782;28;20291;-64
2021/11/17 11:51:21;;;;;;;13.27;3.47;;;;;;;;;;5116032;28;20537;-75
2021/11/17 11:54:06;;;;;;;12.50;2.88;;;;;;;;;;5118901;28;20087;-61
2021/11/17 11:56:36;;;;;;;12.32;2.55;;;;;;;;;;5104591;28;20112;-64
2021/11/17 11:59:07;;;;;;;9.15;2.17;;;;;;;;;;5113448;28;20054;-60
2021/11/17 12:01:34;;;;;;;14.23;3.55;;;;;;;;;;5115993;28;20036;-65
2021/11/17 12:04:10;;;;;;;17.95;2.95;;;;;;;;;;5115396;28;20048;-66
2021/11/17 12:06:48;;;;;;;14.48;2.90;;;;;;;;;;5116906;28;20043;-65
2021/11/17 12:09:18;;;;;;;12.13;2.58;;;;;;;;;;5112739;28;20055;-65
2021/11/17 12:11:49;;;;;;;11.50;2.25;;;;;;;;;;5118236;28;20562;-65
2021/11/17 12:14:26;;;;;;;14.48;2.42;;;;;;;;;;5115439;28;20115;-65
2021/11/17 12:16:53;;;;;;;13.15;2.25;;;;;;;;;;5097879;28;20052;-65
2021/11/17 12:19:38;;;;;;;13.57;2.75;;;;;;;;;;5120221;28;20244;-65
2021/11/17 12:22:06;;;;;;;15.25;3.13;;;;;;;;;;5106523;28;20099;-65
2021/11/17 12:24:35;;;;;;;12.27;3.05;;;;;;;;;;5124227;28;20448;-65
2021/11/17 12:27:13;;;;;;;11.35;2.22;;;;;;;;;;5119081;28;20100;-66
2021/11/17 12:29:39;;;;;;;;;;;;;;;;;;5119165;28;20048;-65
2021/11/17 12:32:08;;;;;;;12.77;2.05;;;;;;;;;;5120942;28;19919;-65
2021/11/17 12:34:52;;;;;;;11.40;2.88;;;;;;;;;;5119326;28;20040;-65
2021/11/17 12:37:18;;;;;;;16.58;3.42;;;;;;;;;;5116288;28;20103;-65
2021/11/17 12:39:50;;;;;;;15.63;2.35;;;;;;;;;;5101550;28;20518;-65
2021/11/17 12:42:23;;;;;;;11.98;2.90;;;;;;;;;;5096551;28;20335;-65
2021/11/17 12:44:50;;;;;;;22.52;3.80;;;;;;;;;;5112521;28;21078;-65
2021/11/17 12:47:21;;;;;;;17.30;2.80;;;;;;;;;;5114955;28;20040;-65
2021/11/17 12:49:59;;;;;;;14.07;2.42;;;;;;;;;;5119833;28;20537;-66
2021/11/17 12:52:29;;;;;;;17.42;3.15;;;;;;;;;;5116760;28;20048;-65
2021/11/17 12:55:07;;;;;;;9.30;2.25;;;;;;;;;;5102664;28;20459;-67
2021/11/17 12:57:41;;;;;;;16.20;2.53;;;;;;;;;;5100198;28;20043;-65
2021/11/17 13:00:13;;;;;;;21.35;3.38;;;;;;;;;;5101153;28;20051;-66
2021/11/17 13:03:08;;;;;;;11.98;3.35;;;;;;;;;;5115739;28;20027;-66
2021/11/17 13:05:44;;;;;;;8.65;2.42;;;;;;;;;;5094929;28;20048;-66
2021/11/17 13:08:12;;;;;;;9.20;2.58;;;;;;;;;;5111677;28;21380;-66
2021/11/17 13:10:38;;;;;;;13.60;2.35;;;;;;;;;;5081372;28;20044;-66
2021/11/17 13:13:10;;;;;;;14.65;2.55;;;;;;;;;;5116113;28;20067;-66
2021/11/17 13:15:41;;;;;;;8.07;1.85;;;;;;;;;;5096702;28;20118;-67
2021/11/17 13:18:08;;;;;;;10.68;2.30;;;;;;;;;;5097291;28;20044;-79
2021/11/17 13:20:40;;;;;;;10.60;2.15;;;;;;;;;;5093671;28;20093;-71
2021/11/17 13:23:12;;;;;;;9.85;2.03;;;;;;;;;;5095931;28;20048;-72
2021/11/17 13:25:47;;;;;;;9.88;1.90;;;;;;;;;;5115217;28;20477;-71
2021/11/17 13:28:32;;;;;;;10.55;2.03;;;;;;;;;;5091750;28;20117;-74
2021/11/17 13:30:58;;;;;;;6.57;1.98;;;;;;;;;;5113224;28;20559;-73
2021/11/17 13:33:29;;;;;;;10.00;2.13;;;;;;;;;;5077726;28;22339;-77
2021/11/17 13:36:07;;;;;;;6.70;1.58;;;;;;;;;;5096473;28;20032;-68
2021/11/17 13:38:33;;;;;;;12.25;2.78;;;;;;;;;;5096840;28;20059;-67
2021/11/17 13:41:04;;;;;;;13.47;2.50;;;;;;;;;;5094793;28;20067;-66
2021/11/17 13:43:31;;;;;;;16.20;2.35;;;;;;;;;;5100304;28;20301;-66
2021/11/17 13:45:57;;;;;;;10.15;2.33;;;;;;;;;;5115335;28;20618;-66
2021/11/17 13:48:26;;;;;;;9.13;1.52;;;;;;;;;;5101935;28;20043;-70
2021/11/17 13:50:54;;;;;;;11.30;2.58;;;;;;;;;;5080742;28;20048;-74
2021/11/17 13:53:20;;;;;;;12.27;2.05;;;;;;;;;;5097793;28;20086;-73
2021/11/17 13:56:05;;;;;;;12.45;2.70;;;;;;;;;;5096253;28;20107;-71
2021/11/17 13:58:32;;;;;;;9.77;1.88;;;;;;;;;;5097283;28;20133;-69
2021/11/17 14:00:58;;;;;;;12.02;2.38;;;;;;;;;;5113343;28;20043;-64
2021/11/17 14:03:24;;;;;;;10.77;1.95;;;;;;;;;;5110350;28;20047;-65
2021/11/17 14:05:50;;;;;;;8.10;1.80;;;;;;;;;;5112426;28;20093;-70
2021/11/17 14:08:17;;;;;;;15.02;2.65;;;;;;;;;;5109516;28;20399;-66
2021/11/17 14:10:44;;;;;;;6.85;1.85;;;;;;;;;;5111392;28;20066;-65
2021/11/17 14:13:10;;;;;;;13.77;2.55;;;;;;;;;;5091706;28;20047;-65
2021/11/17 14:15:36;;;;;;;12.25;1.92;;;;;;;;;;5092894;28;20770;-65
2021/11/17 14:18:03;;;;;;;9.15;1.67;;;;;;;;;;5093427;28;20119;-66
2021/11/17 14:20:29;;;;;;;9.70;2.33;;;;;;;;;;5114027;28;21830;-66
2021/11/17 14:22:55;;;;;;;14.77;2.40;;;;;;;;;;5107563;28;20070;-64
2021/11/17 14:25:23;;;;;;;8.05;1.50;;;;;;;;;;5109188;28;20041;-69
2021/11/17 14:28:00;;;;;;;8.52;1.92;;;;;;;;;;5113820;28;20304;-71
2021/11/17 14:30:26;;;;;;;11.65;1.70;;;;;;;;;;5078041;28;20059;-72
2021/11/17 14:32:53;;;;;;;10.70;1.85;;;;;;;;;;5109824;28;20068;-67
2021/11/17 14:35:21;;;;;;;4.22;1.45;;;;;;;;;;5094978;28;20068;-66
2021/11/17 14:37:47;;;;;;;;;;;;;;;;;;5113592;28;20040;-65
2021/11/17 14:40:14;;;;;;;13.95;2.78;;;;;;;;;;5091915;28;19924;-65
2021/11/17 14:42:41;;;;;;;8.63;1.90;;;;;;;;;;5094175;28;20043;-63
2021/11/17 14:45:08;;;;;;;7.78;1.60;;;;;;;;;;5112413;28;20058;-63
2021/11/17 14:47:34;;;;;;;17.25;2.17;;;;;;;;;;5110011;28;20046;-69
2021/11/17 14:50:00;;;;;;;10.63;2.45;;;;;;;;;;5110232;28;20051;-73
2021/11/17 14:52:26;;;;;;;10.15;1.63;;;;;;;;;;5108859;28;20048;-64
2021/11/17 14:54:52;;;;;;;10.20;1.67;;;;;;;;;;5093540;28;20046;-65
2021/11/17 14:57:19;;;;;;;11.32;2.45;;;;;;;;;;5109261;28;20082;-64
2021/11/17 14:59:45;;;;;;;14.23;2.13;;;;;;;;;;5107762;28;20044;-69
2021/11/17 15:02:12;;;;;;;12.98;2.35;;;;;;;;;;5089915;28;20540;-72
2021/11/17 15:04:38;;;;;;;12.70;2.65;;;;;;;;;;5085579;28;20058;-64
2021/11/17 15:07:05;;;;;;;18.75;2.38;;;;;;;;;;5096773;28;20059;-68
2021/11/17 15:09:32;;;;;;;14.20;2.70;;;;;;;;;;5113419;28;20070;-64
2021/11/17 15:12:00;;;;;;;11.48;2.50;;;;;;;;;;5092982;28;20055;-75
2021/11/17 15:14:28;;;;;;;15.15;2.33;;;;;;;;;;5111738;28;20763;-66
2021/11/17 15:16:54;;;;;;;14.77;3.53;;;;;;;;;;5109913;28;20411;-66
2021/11/17 15:19:21;;;;;;;16.55;2.22;;;;;;;;;;5112358;28;20064;-65
2021/11/17 15:21:47;;;;;;;16.40;2.47;;;;;;;;;;5095916;28;20081;-63
2021/11/17 15:24:13;;;;;;;16.77;3.17;;;;;;;;;;5094943;28;20044;-66
2021/11/17 15:26:54;;;;;;;16.92;2.30;;;;;;;;;;5113940;28;20071;-65
2021/11/17 15:29:20;;;;;;;10.45;2.70;;;;;;;;;;5118250;28;20455;-65
2021/11/17 15:31:46;;;;;;;13.88;2.63;;;;;;;;;;5111440;28;20036;-65
2021/11/17 15:34:13;;;;;;;25.38;2.83;;;;;;;;;;5088986;28;20135;-68
2021/11/17 15:36:40;;;;;;;7.78;2.08;;;;;;;;;;5113275;28;20115;-70
2021/11/17 15:39:07;;;;;;;12.95;2.20;;;;;;;;;;5114636;28;20075;-68
2021/11/17 15:41:34;;;;;;;19.75;2.65;;;;;;;;;;5115766;28;20044;-64
2021/11/17 15:44:00;;;;;;;14.38;3.13;;;;;;;;;;5073846;28;20067;-64
2021/11/17 15:46:28;;;;;;;16.80;3.22;;;;;;;;;;5076251;28;20047;-62
2021/11/17 15:48:54;;;;;;;15.77;2.42;;;;;;;;;;5113377;28;20042;-63
2021/11/17 15:51:31;;;;;;;14.90;3.50;;;;;;;;;;5095069;28;20048;-67
2021/11/17 15:53:58;;;;;;;13.25;2.33;;;;;;;;;;5101864;28;20059;-69
2021/11/17 15:56:25;;;;;;;11.65;2.38;;;;;;;;;;5113294;28;20052;-67
2021/11/17 15:58:51;;;;;;;16.00;3.50;;;;;;;;;;5093432;28;20040;-64
2021/11/17 16:01:20;;;;;;;8.20;2.00;;;;;;;;;;5120213;28;20343;-65
2021/11/17 16:03:47;;;;;;;11.13;2.22;;;;;;;;;;5119446;28;20032;-65
2021/11/17 16:06:14;;;;;;;24.58;3.60;;;;;;;;;;5117208;28;20060;-66
2021/11/17 16:08:40;;;;;;;16.15;2.83;;;;;;;;;;5103199;28;20123;-70
2021/11/17 16:11:07;;;;;;;19.27;3.60;;;;;;;;;;5118017;28;20129;-65
2021/11/17 16:13:33;;;;;;;15.05;2.45;;;;;;;;;;5117617;28;20056;-67
2021/11/17 16:15:59;;;;;;;16.17;3.17;;;;;;;;;;5097420;28;20100;-66
2021/11/17 16:18:25;;;;;;;13.73;2.50;;;;;;;;;;5116706;28;20047;-67
2021/11/17 16:20:55;;;;;;;18.42;4.45;;;;;;;;;;5118003;28;20051;-62
2021/11/17 16:25:54;;;;;;;11.30;2.38;;;;;;;;;;5112259;28;20052;-66
2021/11/17 16:28:22;;;;;;;9.75;2.00;;;;;;;;;;5112933;28;20040;-64
2021/11/17 16:30:48;;;;;;;;;;;;;;;;;;5097636;28;20089;-66
2021/11/17 16:33:16;;;;;;;8.25;1.67;;;;;;;;;;5103567;28;19920;-63
2021/11/17 16:35:43;;;;;;;14.18;2.13;;;;;;;;;;5116405;28;20062;-63
2021/11/17 16:38:09;;;;;;;8.77;1.25;;;;;;;;;;5117301;28;20047;-64
2021/11/17 16:40:37;;;;;;;13.20;1.65;;;;;;;;;;5113765;28;20040;-67
2021/11/17 16:43:04;;;;;;;11.63;1.48;;;;;;;;;;5093590;28;20059;-67
2021/11/17 16:45:30;;;;;;;12.88;2.75;;;;;;;;;;5091411;28;20127;-68
2021/11/17 16:47:57;;;;;;;6.32;1.58;;;;;;;;;;5105360;28;20051;-65
2021/11/17 16:50:24;;;;;;;15.23;2.25;;;;;;;;;;5098548;28;20102;-66
2021/11/17 16:52:51;;;;;;;11.02;2.33;;;;;;;;;;5101435;28;20055;-65
2021/11/17 16:55:25;;;;;;;12.77;1.98;;;;;;;;;;5104197;28;20096;-66
2021/11/17 16:57:51;;;;;;;19.80;3.05;;;;;;;;;;5122302;28;20104;-65
2021/11/17 17:00:19;;;;;;;14.07;2.35;;;;;;;;;;5104457;28;20652;-65
2021/11/17 17:02:46;;;;;;;12.68;3.78;;;;;;;;;;5095266;28;20080;-64
2021/11/17 17:05:12;;;;;;;13.80;3.63;;;;;;;;;;5102263;28;20044;-65
2021/11/17 17:07:38;;;;;;;19.88;3.58;;;;;;;;;;5095947;28;20471;-69
2021/11/17 17:10:08;;;;;;;21.75;3.78;;;;;;;;;;5097932;28;20103;-70
2021/11/17 17:12:36;;;;;;;16.85;2.40;;;;;;;;;;5120112;28;20061;-69
2021/11/17 17:15:03;;;;;;;18.13;3.50;;;;;;;;;;5113751;28;20043;-69